Time;durP1;ratioP1;P1;durP2;ratioP2;P2;SDS_P1;SDS_P2;PMS_P1;PMS_P2;Temp;Humidity;BMP_temperature;BMP_pressure;BME280_temperature;BME280_humidity;BME280_pressure;Samples;Min_cycle;Max_cycle;Signal;HPM_P1;HPM_P2
2021/10/30 00:00:10;;;;;;;22.77;19.10;;;23.20;35.30;;;;;;4771063;29;20460;-57
2021/10/30 00:02:38;;;;;;;26.77;19.92;;;23.10;35.30;;;;;;4781011;29;20052;-55
2021/10/30 00:05:07;;;;;;;25.10;18.95;;;23.10;35.30;;;;;;4781351;29;20063;-54
2021/10/30 00:07:34;;;;;;;23.27;18.40;;;23.10;35.30;;;;;;4779652;29;20142;-52
2021/10/30 00:10:02;;;;;;;25.02;18.23;;;23.10;35.30;;;;;;4767337;29;20095;-54
2021/10/30 00:12:29;;;;;;;26.85;19.23;;;23.10;35.30;;;;;;4784266;29;20051;-55
2021/10/30 00:14:56;;;;;;;26.50;18.98;;;23.10;35.30;;;;;;4784384;29;20515;-53
2021/10/30 00:17:23;;;;;;;26.50;19.48;;;23.10;35.20;;;;;;4784380;29;20303;-53
2021/10/30 00:19:50;;;;;;;24.10;18.33;;;23.10;35.20;;;;;;4766362;29;20051;-53
2021/10/30 00:22:18;;;;;;;25.85;18.98;;;23.10;35.20;;;;;;4783880;29;20087;-54
2021/10/30 00:24:45;;;;;;;24.58;18.50;;;23.10;35.20;;;;;;4783483;29;20327;-53
2021/10/30 00:27:13;;;;;;;23.98;17.98;;;23.10;35.10;;;;;;4783873;29;20487;-54
2021/10/30 00:29:40;;;;;;;23.75;18.10;;;23.10;35.10;;;;;;4766897;29;20153;-51
2021/10/30 00:32:08;;;;;;;25.15;18.52;;;23.10;35.10;;;;;;4782235;30;20093;-53
2021/10/30 00:34:35;;;;;;;25.17;18.25;;;23.10;35.10;;;;;;4784492;29;20263;-52
2021/10/30 00:37:03;;;;;;;23.60;18.23;;;23.10;35.10;;;;;;4783840;29;20525;-54
2021/10/30 00:39:30;;;;;;;25.17;19.00;;;23.10;35.10;;;;;;4765411;29;20051;-53
2021/10/30 00:41:58;;;;;;;25.05;18.40;;;23.10;35.10;;;;;;4784251;29;20059;-50
2021/10/30 00:44:26;;;;;;;23.52;18.38;;;23.10;35.10;;;;;;4783841;29;20078;-54
2021/10/30 00:46:54;;;;;;;22.75;16.98;;;23.10;35.00;;;;;;4784179;29;20112;-53
2021/10/30 00:49:24;;;;;;;25.10;17.77;;;23.10;35.10;;;;;;4765876;29;20115;-53
2021/10/30 00:51:54;;;;;;;22.42;17.20;;;23.10;35.10;;;;;;4783731;29;20077;-54
2021/10/30 00:54:23;;;;;;;24.30;17.73;;;23.10;35.10;;;;;;4783808;29;20529;-53
2021/10/30 00:56:53;;;;;;;22.73;17.65;;;23.10;35.10;;;;;;4783722;29;20146;-54
2021/10/30 00:59:21;;;;;;;23.52;17.05;;;23.10;35.10;;;;;;4767308;29;20729;-54
2021/10/30 01:01:51;;;;;;;23.70;17.95;;;23.10;35.10;;;;;;4783224;29;20071;-54
2021/10/30 01:04:19;;;;;;;;;;;23.10;35.10;;;;;;4784176;29;20150;-57
2021/10/30 01:06:49;;;;;;;22.88;17.58;;;23.00;35.00;;;;;;4784035;29;20013;-53
2021/10/30 01:09:20;;;;;;;25.05;18.48;;;23.00;35.00;;;;;;4764096;29;20051;-51
2021/10/30 01:11:48;;;;;;;24.75;18.13;;;23.00;35.00;;;;;;4783546;29;20067;-54
2021/10/30 01:14:16;;;;;;;24.10;17.13;;;23.00;35.00;;;;;;4783308;29;20567;-52
2021/10/30 01:16:57;;;;;;;23.35;17.30;;;23.00;35.00;;;;;;4783786;29;20421;-53
2021/10/30 01:19:25;;;;;;;25.10;17.33;;;23.00;35.10;;;;;;4762305;29;20671;-53
2021/10/30 01:21:53;;;;;;;23.48;16.58;;;23.00;35.00;;;;;;4783097;29;20582;-53
2021/10/30 01:24:21;;;;;;;23.65;18.25;;;23.00;35.10;;;;;;4783132;29;20476;-55
2021/10/30 01:26:49;;;;;;;23.70;17.55;;;23.00;35.10;;;;;;4783133;29;20098;-52
2021/10/30 01:29:16;;;;;;;21.63;17.55;;;23.00;35.10;;;;;;4764806;29;20582;-55
2021/10/30 01:31:43;;;;;;;21.27;16.52;;;23.00;35.10;;;;;;4782540;30;20087;-52
2021/10/30 01:34:11;;;;;;;23.95;15.57;;;23.00;35.10;;;;;;4782700;29;20051;-54
2021/10/30 01:36:38;;;;;;;23.38;16.10;;;23.00;35.10;;;;;;4783467;29;20169;-54
2021/10/30 01:39:08;;;;;;;25.85;17.13;;;23.00;35.10;;;;;;4766957;29;20079;-54
2021/10/30 01:41:36;;;;;;;22.27;17.63;;;23.00;35.10;;;;;;4764448;30;20055;-54
2021/10/30 01:44:04;;;;;;;20.08;15.43;;;23.00;35.10;;;;;;4764659;30;20052;-52
2021/10/30 01:46:32;;;;;;;22.45;16.75;;;23.00;35.10;;;;;;4765640;30;20056;-54
2021/10/30 01:49:00;;;;;;;20.77;15.70;;;23.00;35.10;;;;;;4762102;29;20082;-55
2021/10/30 01:51:28;;;;;;;24.08;17.48;;;23.00;35.10;;;;;;4780325;30;20059;-54
2021/10/30 01:53:57;;;;;;;19.52;16.33;;;23.00;35.10;;;;;;4783134;29;20051;-52
2021/10/30 01:56:25;;;;;;;21.20;15.85;;;23.00;35.10;;;;;;4782828;29;20116;-54
2021/10/30 01:58:52;;;;;;;24.92;17.45;;;22.90;35.00;;;;;;4770412;29;20059;-53
2021/10/30 02:01:20;;;;;;;21.30;15.50;;;22.90;35.00;;;;;;4777436;29;20055;-53
2021/10/30 02:03:47;;;;;;;22.02;16.75;;;22.90;35.00;;;;;;4782410;29;20145;-53
2021/10/30 02:06:15;;;;;;;21.83;16.42;;;22.90;35.00;;;;;;4782879;29;20061;-54
2021/10/30 02:08:42;;;;;;;22.45;16.05;;;22.90;34.90;;;;;;4770063;29;20385;-53
2021/10/30 02:11:09;;;;;;;19.13;15.75;;;22.90;34.90;;;;;;4777223;29;20092;-55
2021/10/30 02:13:36;;;;;;;24.08;17.10;;;22.90;34.90;;;;;;4782386;29;20130;-53
2021/10/30 02:16:04;;;;;;;20.08;15.23;;;22.90;34.90;;;;;;4782001;29;20292;-53
2021/10/30 02:18:31;;;;;;;21.83;15.82;;;22.90;34.90;;;;;;4768726;29;20056;-57
2021/10/30 02:20:58;;;;;;;21.45;15.80;;;22.90;34.90;;;;;;4776824;29;20147;-54
2021/10/30 02:23:26;;;;;;;23.77;15.68;;;22.90;34.90;;;;;;4782542;29;20150;-54
2021/10/30 02:25:53;;;;;;;20.33;14.90;;;22.90;34.90;;;;;;4782162;29;20440;-56
2021/10/30 02:28:22;;;;;;;22.42;15.90;;;22.90;34.90;;;;;;4773428;29;20087;-54
2021/10/30 02:30:49;;;;;;;21.63;16.00;;;22.90;34.90;;;;;;4777438;29;20059;-54
2021/10/30 02:33:16;;;;;;;23.45;16.15;;;22.90;34.90;;;;;;4781782;29;20094;-55
2021/10/30 02:35:43;;;;;;;21.60;16.00;;;22.90;34.90;;;;;;4782293;29;20104;-55
2021/10/30 02:38:10;;;;;;;19.98;15.95;;;22.90;34.80;;;;;;4775002;29;20098;-54
2021/10/30 02:40:37;;;;;;;21.55;15.77;;;22.90;34.90;;;;;;4770718;29;20503;-52
2021/10/30 02:43:05;;;;;;;20.35;15.20;;;22.90;34.80;;;;;;4782569;29;20086;-54
2021/10/30 02:45:32;;;;;;;16.52;13.93;;;22.90;34.80;;;;;;4781091;29;20294;-54
2021/10/30 02:48:01;;;;;;;18.98;14.88;;;22.90;34.90;;;;;;4774818;29;20067;-60
2021/10/30 02:50:28;;;;;;;20.45;14.77;;;22.90;34.90;;;;;;4770068;29;20091;-53
2021/10/30 02:52:56;;;;;;;19.90;14.73;;;22.90;34.90;;;;;;4782563;29;20089;-54
2021/10/30 02:55:24;;;;;;;19.80;14.88;;;22.90;34.80;;;;;;4781545;29;20105;-53
2021/10/30 02:57:52;;;;;;;21.58;14.85;;;22.90;34.80;;;;;;4774578;29;20071;-53
2021/10/30 03:00:19;;;;;;;20.85;15.75;;;22.90;34.90;;;;;;4771563;29;20158;-51
2021/10/30 03:02:46;;;;;;;18.20;14.32;;;22.90;34.90;;;;;;4781427;29;20463;-52
2021/10/30 03:05:14;;;;;;;21.33;15.50;;;22.90;34.90;;;;;;4781266;29;20524;-53
2021/10/30 03:07:41;;;;;;;20.02;15.63;;;22.90;34.90;;;;;;4779884;29;20048;-52
2021/10/30 03:10:09;;;;;;;18.90;14.80;;;22.90;34.90;;;;;;4765443;29;20059;-51
2021/10/30 03:12:36;;;;;;;19.98;15.07;;;22.90;34.90;;;;;;4782056;29;20059;-53
2021/10/30 03:15:04;;;;;;;20.25;15.88;;;22.90;34.90;;;;;;4782047;29;20212;-52
2021/10/30 03:17:31;;;;;;;18.17;14.30;;;22.90;34.90;;;;;;4780292;29;20090;-53
2021/10/30 03:19:58;;;;;;;17.35;13.95;;;22.90;34.90;;;;;;4764998;29;20051;-51
2021/10/30 03:22:25;;;;;;;18.83;15.60;;;22.90;34.90;;;;;;4780145;30;20062;-54
2021/10/30 03:24:52;;;;;;;18.58;13.85;;;22.90;34.90;;;;;;4781825;29;20459;-52
2021/10/30 03:27:20;;;;;;;20.05;15.05;;;22.90;34.90;;;;;;4779976;30;20098;-54
2021/10/30 03:29:47;;;;;;;18.13;14.02;;;22.90;34.90;;;;;;4762154;29;20163;-54
2021/10/30 03:32:14;;;;;;;19.17;14.15;;;22.80;34.80;;;;;;4780536;30;20112;-52
2021/10/30 03:34:41;;;;;;;17.10;14.20;;;22.80;34.80;;;;;;4781416;29;20055;-54
2021/10/30 03:37:08;;;;;;;20.15;14.68;;;22.80;34.80;;;;;;4781572;29;20051;-52
2021/10/30 03:39:36;;;;;;;18.55;14.13;;;22.80;34.80;;;;;;4763262;29;20523;-49
2021/10/30 03:42:04;;;;;;;20.40;14.57;;;22.80;34.80;;;;;;4781502;29;20120;-53
2021/10/30 03:44:32;;;;;;;19.02;14.15;;;22.80;34.80;;;;;;4781832;29;20735;-54
2021/10/30 03:46:59;;;;;;;18.90;14.45;;;22.80;34.80;;;;;;4782543;30;20494;-54
2021/10/30 03:49:27;;;;;;;17.48;13.75;;;22.80;34.70;;;;;;4765910;29;20123;-54
2021/10/30 03:51:54;;;;;;;18.17;14.68;;;22.80;34.70;;;;;;4782747;29;20512;-50
2021/10/30 03:54:21;;;;;;;18.80;14.18;;;22.80;34.70;;;;;;4784385;29;20460;-54
2021/10/30 03:56:48;;;;;;;16.75;12.93;;;22.80;34.60;;;;;;4781990;29;20490;-54
2021/10/30 03:59:15;;;;;;;18.73;13.73;;;22.80;34.60;;;;;;4765520;29;20816;-52
2021/10/30 04:01:43;;;;;;;19.88;14.48;;;22.80;34.60;;;;;;4782746;30;20334;-50
2021/10/30 04:04:10;;;;;;;18.83;14.65;;;22.80;34.60;;;;;;4783537;29;20454;-54
2021/10/30 04:06:37;;;;;;;16.60;12.98;;;22.80;34.60;;;;;;4783386;29;20055;-54
2021/10/30 04:09:05;;;;;;;15.40;12.98;;;22.80;35.20;;;;;;4766354;29;20104;-53
2021/10/30 04:11:32;;;;;;;17.92;13.90;;;22.80;34.60;;;;;;4783212;29;20055;-54
2021/10/30 04:14:00;;;;;;;16.98;13.43;;;22.80;34.60;;;;;;4782580;29;20104;-56
2021/10/30 04:16:28;;;;;;;17.60;13.45;;;22.80;34.60;;;;;;4782743;29;20529;-53
2021/10/30 04:18:58;;;;;;;16.13;12.88;;;22.80;34.50;;;;;;4771506;29;20051;-54
2021/10/30 04:21:25;;;;;;;18.55;13.90;;;22.80;34.60;;;;;;4780188;29;20062;-53
2021/10/30 04:23:52;;;;;;;16.90;13.52;;;22.80;34.50;;;;;;4783831;29;20070;-54
2021/10/30 04:26:20;;;;;;;15.93;13.25;;;22.80;34.60;;;;;;4783895;29;20087;-53
2021/10/30 04:28:47;;;;;;;18.60;14.15;;;22.80;34.60;;;;;;4770673;29;20151;-53
2021/10/30 04:31:20;;;;;;;18.70;13.35;;;22.80;34.60;;;;;;4777565;30;20418;-54
2021/10/30 04:33:49;;;;;;;16.08;13.52;;;22.80;34.60;;;;;;4781350;29;20055;-52
2021/10/30 04:36:16;;;;;;;19.15;13.15;;;22.80;34.60;;;;;;4783290;29;20142;-53
2021/10/30 04:38:45;;;;;;;16.30;12.38;;;22.80;34.60;;;;;;4771729;29;20852;-53
2021/10/30 04:41:13;;;;;;;15.93;12.18;;;22.80;34.60;;;;;;4777562;29;20488;-52
2021/10/30 04:43:40;;;;;;;14.13;11.75;;;22.80;34.60;;;;;;4782407;29;20093;-52
2021/10/30 04:46:08;;;;;;;16.25;13.27;;;22.80;34.60;;;;;;4782755;29;20059;-54
2021/10/30 04:48:37;;;;;;;16.25;12.77;;;22.80;34.60;;;;;;4770102;29;20425;-51
2021/10/30 04:51:07;;;;;;;16.15;13.18;;;22.70;34.60;;;;;;4777413;29;20146;-55
2021/10/30 04:53:36;;;;;;;15.88;12.82;;;22.80;34.70;;;;;;4782913;29;20090;-54
2021/10/30 04:56:04;;;;;;;16.80;13.00;;;22.80;34.70;;;;;;4781635;29;20070;-52
2021/10/30 04:58:33;;;;;;;15.63;12.23;;;22.70;34.60;;;;;;4770126;29;20090;-53
2021/10/30 05:01:01;;;;;;;16.17;11.98;;;22.70;34.60;;;;;;4777626;29;20055;-54
2021/10/30 05:03:29;;;;;;;14.77;11.68;;;22.70;34.60;;;;;;4781323;30;20104;-52
2021/10/30 05:05:56;;;;;;;15.63;12.13;;;22.70;34.60;;;;;;4782844;29;20154;-53
2021/10/30 05:08:23;;;;;;;16.38;12.63;;;22.80;34.50;;;;;;4770259;29;20108;-53
2021/10/30 05:10:51;;;;;;;16.33;12.70;;;22.80;34.30;;;;;;4777189;29;20056;-54
2021/10/30 05:13:18;;;;;;;14.65;12.48;;;22.80;34.00;;;;;;4782690;29;20055;-52
2021/10/30 05:15:45;;;;;;;17.15;13.40;;;22.80;33.80;;;;;;4782565;29;20063;-53
2021/10/30 05:18:12;;;;;;;13.10;11.25;;;22.80;33.70;;;;;;4774535;29;20112;-54
2021/10/30 05:20:39;;;;;;;15.32;12.43;;;22.80;33.60;;;;;;4771764;29;20434;-52
2021/10/30 05:23:06;;;;;;;15.23;11.98;;;22.80;33.50;;;;;;4780273;30;20142;-52
2021/10/30 05:25:33;;;;;;;18.02;12.02;;;22.80;33.40;;;;;;4782453;29;20131;-54
2021/10/30 05:28:00;;;;;;;14.02;10.85;;;22.80;33.30;;;;;;4774108;29;20094;-54
2021/10/30 05:30:27;;;;;;;16.02;12.88;;;22.80;33.30;;;;;;4771603;29;20108;-54
2021/10/30 05:32:55;;;;;;;15.10;11.75;;;22.80;33.20;;;;;;4781062;30;20091;-55
2021/10/30 05:35:22;;;;;;;14.45;12.35;;;22.80;33.10;;;;;;4780827;29;20085;-55
2021/10/30 05:37:49;;;;;;;16.85;11.35;;;22.80;33.00;;;;;;4774455;29;20789;-54
2021/10/30 05:40:16;;;;;;;12.55;10.90;;;22.90;33.00;;;;;;4771400;29;20146;-51
2021/10/30 05:42:43;;;;;;;12.80;10.93;;;22.90;32.90;;;;;;4781888;29;20424;-54
2021/10/30 05:45:12;;;;;;;16.70;11.30;;;23.00;32.80;;;;;;4782115;29;20094;-55
2021/10/30 05:47:39;;;;;;;15.73;11.88;;;23.00;32.80;;;;;;4780066;29;20082;-55
2021/10/30 05:50:08;;;;;;;13.38;11.38;;;23.00;32.60;;;;;;4766735;29;20604;-54
2021/10/30 05:52:35;;;;;;;14.98;11.48;;;23.10;32.60;;;;;;4781490;29;20171;-55
2021/10/30 05:55:02;;;;;;;13.60;11.60;;;23.10;32.50;;;;;;4781997;29;20115;-55
2021/10/30 05:57:30;;;;;;;14.98;10.98;;;23.10;32.40;;;;;;4781143;29;20498;-53
2021/10/30 05:59:57;;;;;;;12.43;10.65;;;23.20;32.40;;;;;;4764940;29;20124;-55
2021/10/30 06:02:24;;;;;;;13.18;10.68;;;23.20;32.30;;;;;;4782030;29;20287;-54
2021/10/30 06:04:53;;;;;;;14.93;10.43;;;23.30;32.30;;;;;;4781458;29;20479;-55
2021/10/30 06:07:20;;;;;;;14.32;10.80;;;23.30;32.20;;;;;;4780666;29;20083;-55
2021/10/30 06:09:47;;;;;;;13.23;10.60;;;23.30;32.10;;;;;;4763323;29;20124;-54
2021/10/30 06:12:15;;;;;;;13.23;10.73;;;23.40;32.00;;;;;;4782076;29;20059;-54
2021/10/30 06:14:42;;;;;;;11.63;10.32;;;23.50;31.90;;;;;;4781486;29;20059;-54
2021/10/30 06:17:09;;;;;;;13.02;11.07;;;23.50;31.90;;;;;;4781196;29;20173;-54
2021/10/30 06:19:36;;;;;;;13.38;10.65;;;23.50;31.80;;;;;;4763652;29;20083;-55
2021/10/30 06:22:04;;;;;;;12.80;10.40;;;23.60;31.80;;;;;;4781433;29;20090;-53
2021/10/30 06:24:31;;;;;;;11.20;9.77;;;23.60;31.70;;;;;;4781323;29;20097;-54
2021/10/30 06:26:59;;;;;;;13.70;10.60;;;23.60;32.20;;;;;;4781451;29;20055;-54
2021/10/30 06:29:28;;;;;;;14.65;11.32;;;23.70;31.60;;;;;;4763988;29;20101;-54
2021/10/30 06:31:55;;;;;;;14.30;11.40;;;23.70;31.50;;;;;;4781931;29;20214;-53
2021/10/30 06:34:22;;;;;;;13.32;10.77;;;23.80;31.40;;;;;;4780826;29;20087;-55
2021/10/30 06:36:49;;;;;;;13.52;10.88;;;23.80;31.30;;;;;;4781475;29;20150;-55
2021/10/30 06:39:16;;;;;;;13.77;10.63;;;23.90;31.30;;;;;;4762181;29;20150;-53
2021/10/30 06:41:48;;;;;;;13.23;10.63;;;23.90;31.20;;;;;;4781327;29;20051;-54
2021/10/30 06:44:16;;;;;;;13.68;11.05;;;23.90;31.20;;;;;;4780662;29;20059;-55
2021/10/30 06:46:44;;;;;;;13.27;10.55;;;24.00;31.20;;;;;;4780921;29;20147;-53
2021/10/30 06:49:14;;;;;;;12.02;9.95;;;24.00;31.10;;;;;;4762686;29;20140;-55
2021/10/30 06:51:42;;;;;;;15.25;11.60;;;24.10;31.10;;;;;;4780155;30;20047;-54
2021/10/30 06:54:10;;;;;;;13.10;10.50;;;24.10;31.00;;;;;;4780968;29;20487;-54
2021/10/30 06:56:39;;;;;;;11.57;10.23;;;24.10;31.00;;;;;;4781087;29;20055;-53
2021/10/30 06:59:07;;;;;;;11.27;10.10;;;24.20;31.00;;;;;;4762243;29;20095;-54
2021/10/30 07:01:35;;;;;;;12.20;10.27;;;24.20;30.90;;;;;;4781246;29;20422;-54
2021/10/30 07:04:05;;;;;;;11.23;9.88;;;24.20;30.90;;;;;;4780393;29;20140;-55
2021/10/30 07:06:35;;;;;;;13.02;10.75;;;24.30;30.90;;;;;;4782381;29;20720;-52
2021/10/30 07:09:03;;;;;;;;;;;24.30;30.80;;;;;;4770571;29;20093;-53
2021/10/30 07:11:30;;;;;;;12.40;10.73;;;24.30;30.70;;;;;;4777915;29;19926;-55
2021/10/30 07:13:57;;;;;;;11.23;10.02;;;24.40;30.70;;;;;;4782836;29;20087;-54
2021/10/30 07:16:25;;;;;;;12.32;10.88;;;24.40;30.70;;;;;;4782355;29;20124;-54
2021/10/30 07:18:52;;;;;;;13.75;11.63;;;24.40;30.60;;;;;;4769899;29;20094;-52
2021/10/30 07:21:19;;;;;;;12.00;10.15;;;24.50;30.60;;;;;;4777600;29;20100;-53
2021/10/30 07:23:47;;;;;;;13.68;10.90;;;24.50;30.50;;;;;;4782450;29;20059;-55
2021/10/30 07:26:14;;;;;;;13.70;11.48;;;24.50;30.40;;;;;;4782559;29;20142;-54
2021/10/30 07:28:41;;;;;;;14.50;12.20;;;24.50;30.30;;;;;;4770262;29;20722;-54
2021/10/30 07:31:08;;;;;;;12.20;10.65;;;24.50;30.30;;;;;;4777053;29;20502;-54
2021/10/30 07:33:35;;;;;;;14.18;11.75;;;24.50;30.40;;;;;;4781413;29;20502;-54
2021/10/30 07:36:03;;;;;;;13.05;10.70;;;24.50;30.40;;;;;;4782338;29;20102;-52
2021/10/30 07:38:30;;;;;;;12.63;11.32;;;24.50;30.50;;;;;;4771678;29;20116;-54
2021/10/30 07:40:58;;;;;;;13.07;11.68;;;24.40;30.50;;;;;;4776391;29;20055;-55
2021/10/30 07:43:25;;;;;;;12.65;11.32;;;24.40;30.60;;;;;;4781632;29;20536;-55
2021/10/30 07:45:53;;;;;;;13.98;11.90;;;24.30;30.60;;;;;;4782079;29;20557;-54
2021/10/30 07:48:20;;;;;;;12.68;11.38;;;24.30;30.60;;;;;;4771911;29;20492;-57
2021/10/30 07:50:48;;;;;;;14.73;12.10;;;24.30;30.70;;;;;;4772774;30;20130;-54
2021/10/30 07:53:15;;;;;;;16.90;12.45;;;24.30;30.70;;;;;;4766670;30;20104;-55
2021/10/30 07:55:42;;;;;;;13.30;11.90;;;24.30;30.80;;;;;;4781959;29;20575;-55
2021/10/30 07:58:09;;;;;;;13.52;11.93;;;24.30;30.80;;;;;;4775118;29;20090;-54
2021/10/30 08:00:36;;;;;;;15.90;12.32;;;24.20;30.80;;;;;;4771737;29;20112;-54
2021/10/30 08:03:04;;;;;;;14.68;12.73;;;24.20;30.90;;;;;;4781390;30;20104;-53
2021/10/30 08:05:31;;;;;;;15.82;12.48;;;24.20;30.90;;;;;;4781799;29;20554;-54
2021/10/30 08:07:58;;;;;;;14.85;12.73;;;24.20;31.00;;;;;;4775188;29;20128;-54
2021/10/30 08:10:31;;;;;;;15.55;12.68;;;24.20;31.00;;;;;;4772403;29;20112;-54
2021/10/30 08:12:58;;;;;;;14.88;13.27;;;24.10;31.00;;;;;;4782899;29;20059;-55
2021/10/30 08:15:25;;;;;;;19.38;14.70;;;24.10;31.00;;;;;;4781977;29;20138;-53
2021/10/30 08:17:52;;;;;;;14.23;12.73;;;24.10;31.10;;;;;;4773679;29;20517;-55
2021/10/30 08:20:20;;;;;;;16.23;13.57;;;24.10;31.20;;;;;;4766916;29;20083;-55
2021/10/30 08:22:47;;;;;;;15.57;13.82;;;24.10;31.20;;;;;;4762046;30;20138;-56
2021/10/30 08:25:14;;;;;;;14.40;12.85;;;24.10;31.30;;;;;;4761923;30;20075;-55
2021/10/30 08:27:42;;;;;;;16.70;13.57;;;24.10;31.40;;;;;;4758497;30;20056;-55
2021/10/30 08:30:10;;;;;;;19.67;15.10;;;24.10;31.40;;;;;;4768119;29;20396;-53
2021/10/30 08:32:37;;;;;;;16.52;14.63;;;24.10;31.50;;;;;;4782965;29;20454;-55
2021/10/30 08:35:05;;;;;;;16.95;14.40;;;24.10;31.50;;;;;;4783147;29;20078;-54
2021/10/30 08:37:38;;;;;;;17.92;14.20;;;24.10;31.60;;;;;;4781271;29;20388;-55
2021/10/30 08:40:06;;;;;;;;;;;24.10;31.60;;;;;;4762497;29;20108;-55
2021/10/30 08:42:53;;;;;;;17.08;14.15;;;24.10;31.70;;;;;;4764958;30;20376;-54
2021/10/30 08:45:21;;;;;;;17.05;13.63;;;24.10;31.70;;;;;;4765371;30;20134;-53
2021/10/30 08:47:48;;;;;;;16.67;14.55;;;24.10;31.80;;;;;;4759012;30;20078;-55
2021/10/30 08:50:17;;;;;;;16.33;13.73;;;24.10;31.90;;;;;;4772787;29;20051;-55
2021/10/30 08:52:44;;;;;;;16.92;14.35;;;24.10;31.80;;;;;;4783093;29;20059;-55
2021/10/30 08:55:11;;;;;;;16.42;13.57;;;24.10;31.90;;;;;;4783072;29;20098;-54
2021/10/30 08:57:38;;;;;;;17.73;13.88;;;24.20;31.90;;;;;;4780389;29;20699;-54
2021/10/30 09:00:19;;;;;;;15.82;13.13;;;24.20;31.90;;;;;;4766571;29;20090;-55
2021/10/30 09:02:55;;;;;;;16.13;13.90;;;24.20;32.00;;;;;;4782851;29;20108;-55
2021/10/30 09:05:24;;;;;;;16.42;13.75;;;24.20;32.00;;;;;;4781026;29;20417;-54
2021/10/30 09:08:00;;;;;;;17.02;13.70;;;24.20;32.00;;;;;;4774851;29;20051;-53
2021/10/30 09:10:30;;;;;;;16.25;13.60;;;24.20;32.00;;;;;;4771690;29;20359;-55
2021/10/30 09:13:00;;;;;;;15.63;13.32;;;24.20;32.00;;;;;;4782407;29;20402;-53
2021/10/30 09:15:37;;;;;;;15.93;13.50;;;24.20;32.00;;;;;;4782991;29;20288;-55
2021/10/30 09:18:36;;;;;;;13.75;12.32;;;24.20;32.10;;;;;;4774828;29;20404;-55
2021/10/30 09:21:15;;;;;;;16.58;13.60;;;24.20;32.10;;;;;;4777116;29;20407;-55
2021/10/30 09:23:46;;;;;;;15.63;12.95;;;24.30;32.20;;;;;;4782094;29;20082;-55
2021/10/30 09:26:20;;;;;;;15.20;13.13;;;24.20;32.10;;;;;;4782889;29;20146;-54
2021/10/30 09:28:54;;;;;;;16.33;13.35;;;24.20;32.20;;;;;;4769870;29;20094;-53
2021/10/30 09:31:26;;;;;;;17.05;13.40;;;24.30;32.30;;;;;;4776858;29;20146;-54
2021/10/30 09:33:59;;;;;;;17.88;15.13;;;24.30;32.30;;;;;;4782730;29;20116;-55
2021/10/30 09:36:31;;;;;;;15.18;13.20;;;24.30;32.30;;;;;;4782350;29;20334;-56
2021/10/30 09:39:11;;;;;;;15.60;13.30;;;24.30;32.30;;;;;;4769540;29;20104;-55
2021/10/30 09:41:41;;;;;;;16.27;12.88;;;24.30;32.30;;;;;;4781524;29;20429;-55
2021/10/30 09:44:22;;;;;;;15.10;13.00;;;24.30;32.40;;;;;;4781966;29;20063;-54
2021/10/30 09:46:53;;;;;;;16.10;13.63;;;24.30;32.40;;;;;;4782112;29;20177;-53
2021/10/30 09:49:29;;;;;;;16.85;13.82;;;24.30;32.50;;;;;;4764947;29;20063;-54
2021/10/30 09:52:11;;;;;;;14.75;13.15;;;24.30;32.50;;;;;;4781956;29;20138;-54
2021/10/30 09:54:41;;;;;;;16.65;13.00;;;24.30;32.50;;;;;;4782635;29;20055;-53
2021/10/30 09:57:12;;;;;;;15.13;13.38;;;24.30;32.50;;;;;;4781439;29;20155;-55
2021/10/30 09:59:41;;;;;;;17.42;13.65;;;24.30;32.50;;;;;;4763284;29;20093;-51
2021/10/30 10:02:09;;;;;;;17.60;13.75;;;24.30;32.50;;;;;;4780406;29;20143;-56
2021/10/30 10:04:40;;;;;;;14.75;12.88;;;24.30;32.50;;;;;;4781604;29;20100;-53
2021/10/30 10:07:09;;;;;;;14.75;13.10;;;24.30;32.50;;;;;;4781671;29;20124;-55
2021/10/30 10:09:37;;;;;;;15.07;13.52;;;24.30;32.50;;;;;;4764013;29;20108;-54
2021/10/30 10:12:05;;;;;;;14.65;12.98;;;24.40;32.60;;;;;;4780017;29;20138;-54
2021/10/30 10:14:35;;;;;;;14.93;12.95;;;24.30;32.60;;;;;;4781947;29;20043;-55
2021/10/30 10:17:02;;;;;;;16.17;14.10;;;24.40;32.60;;;;;;4781145;29;20062;-55
2021/10/30 10:19:29;;;;;;;17.27;13.85;;;24.40;32.60;;;;;;4763110;29;20139;-54
2021/10/30 10:21:58;;;;;;;15.90;13.57;;;24.40;32.60;;;;;;4781880;29;20086;-54
2021/10/30 10:24:31;;;;;;;15.23;13.13;;;24.40;32.70;;;;;;4780441;29;20063;-55
2021/10/30 10:27:02;;;;;;;14.88;13.02;;;24.40;32.70;;;;;;4782197;29;20047;-55
2021/10/30 10:29:45;;;;;;;16.83;12.73;;;24.40;32.60;;;;;;4763392;29;20469;-52
2021/10/30 10:32:24;;;;;;;15.30;13.13;;;24.50;32.60;;;;;;4781141;29;20142;-54
2021/10/30 10:34:52;;;;;;;16.17;13.30;;;24.50;32.60;;;;;;4781089;29;20590;-55
2021/10/30 10:37:23;;;;;;;17.80;13.85;;;24.50;32.60;;;;;;4780419;30;20086;-53
2021/10/30 10:39:54;;;;;;;15.52;13.27;;;24.50;32.60;;;;;;4762892;29;20129;-53
2021/10/30 10:42:42;;;;;;;14.93;13.18;;;24.50;32.60;;;;;;4780766;29;20047;-53
2021/10/30 10:45:14;;;;;;;16.15;13.70;;;24.50;32.60;;;;;;4782229;29;20051;-53
2021/10/30 10:47:51;;;;;;;16.80;13.73;;;24.50;32.60;;;;;;4777249;29;20051;-55
2021/10/30 10:50:34;;;;;;;15.70;13.63;;;24.60;32.70;;;;;;4766651;29;20147;-55
2021/10/30 10:53:16;;;;;;;14.70;13.10;;;24.60;32.70;;;;;;4762647;30;20139;-55
2021/10/30 10:56:04;;;;;;;15.90;13.55;;;24.60;32.70;;;;;;4763126;30;20142;-55
2021/10/30 10:58:51;;;;;;;16.25;13.80;;;24.60;32.70;;;;;;4755645;29;20063;-54
2021/10/30 11:01:18;;;;;;;16.00;14.25;;;24.60;32.70;;;;;;4775820;29;20059;-54
2021/10/30 11:03:45;;;;;;;16.05;14.13;;;24.70;32.80;;;;;;4780672;29;20051;-54
2021/10/30 11:06:13;;;;;;;17.70;14.65;;;24.60;32.70;;;;;;4780804;29;20477;-55
2021/10/30 11:08:44;;;;;;;15.10;13.50;;;24.60;32.70;;;;;;4767968;29;20051;-54
2021/10/30 11:11:14;;;;;;;16.73;13.75;;;24.60;32.70;;;;;;4775491;29;20277;-57
2021/10/30 11:13:53;;;;;;;19.08;14.25;;;24.60;32.70;;;;;;4780085;29;20120;-55
2021/10/30 11:16:28;;;;;;;17.38;14.88;;;24.70;33.40;;;;;;4781138;29;20079;-55
2021/10/30 11:19:08;;;;;;;15.55;13.73;;;24.70;32.80;;;;;;4767106;29;20084;-54
2021/10/30 11:21:41;;;;;;;17.65;15.05;;;24.70;32.80;;;;;;4781539;29;20055;-54
2021/10/30 11:24:17;;;;;;;18.05;14.60;;;24.70;32.80;;;;;;4780054;29;20146;-54
2021/10/30 11:26:57;;;;;;;17.40;15.23;;;24.70;32.80;;;;;;4780977;29;20096;-53
2021/10/30 11:29:26;;;;;;;16.65;14.85;;;24.70;32.80;;;;;;4762319;29;20484;-55
2021/10/30 11:32:03;;;;;;;16.40;14.27;;;24.70;32.80;;;;;;4782884;29;20051;-54
2021/10/30 11:34:31;;;;;;;18.92;14.98;;;24.70;32.80;;;;;;4782003;29;20105;-54
2021/10/30 11:36:58;;;;;;;18.90;14.85;;;24.70;32.80;;;;;;4782845;29;20430;-55
2021/10/30 11:39:31;;;;;;;16.20;13.88;;;24.70;32.70;;;;;;4764949;29;20120;-55
2021/10/30 11:42:03;;;;;;;16.38;14.52;;;24.70;32.70;;;;;;4782450;29;20083;-55
2021/10/30 11:44:31;;;;;;;15.80;13.18;;;24.70;32.70;;;;;;4782520;29;20093;-54
2021/10/30 11:46:59;;;;;;;16.65;14.15;;;24.70;33.20;;;;;;4782403;29;20090;-55
2021/10/30 11:49:33;;;;;;;17.33;14.20;;;24.80;32.70;;;;;;4764365;29;20109;-55
2021/10/30 11:52:09;;;;;;;15.98;13.82;;;24.80;32.70;;;;;;4782502;29;20059;-54
2021/10/30 11:54:37;;;;;;;16.80;14.23;;;24.80;32.60;;;;;;4780641;29;20506;-55
2021/10/30 11:57:09;;;;;;;17.48;14.38;;;24.80;32.70;;;;;;4782529;29;20048;-56
2021/10/30 11:59:38;;;;;;;15.60;13.73;;;24.90;32.70;;;;;;4763965;29;20063;-55
2021/10/30 12:02:15;;;;;;;17.23;14.23;;;24.90;32.60;;;;;;4782397;29;20134;-57
2021/10/30 12:04:43;;;;;;;16.33;13.77;;;24.90;32.60;;;;;;4782935;29;20077;-55
2021/10/30 12:07:12;;;;;;;15.68;12.95;;;24.90;32.60;;;;;;4786269;29;20130;-54
2021/10/30 12:09:42;;;;;;;15.77;13.40;;;24.90;32.60;;;;;;4767346;29;20058;-54
2021/10/30 12:12:24;;;;;;;17.33;14.90;;;24.90;32.60;;;;;;4786451;29;20054;-55
2021/10/30 12:14:54;;;;;;;16.60;14.43;;;24.90;32.60;;;;;;4786407;29;20071;-54
2021/10/30 12:17:29;;;;;;;17.65;14.40;;;24.90;32.60;;;;;;4786293;29;20062;-55
2021/10/30 12:20:10;;;;;;;16.02;13.82;;;24.90;32.60;;;;;;4769505;29;20142;-55
2021/10/30 12:22:44;;;;;;;15.60;13.88;;;24.90;32.60;;;;;;4786385;29;20055;-51
2021/10/30 12:25:26;;;;;;;15.60;13.88;;;24.90;32.60;;;;;;4785753;29;20124;-50
2021/10/30 12:27:56;;;;;;;15.95;14.25;;;24.90;32.60;;;;;;4779053;29;20502;-54
2021/10/30 12:30:31;;;;;;;15.70;13.63;;;24.90;32.60;;;;;;4775069;29;20055;-53
2021/10/30 12:33:11;;;;;;;15.88;14.15;;;24.90;32.60;;;;;;4785960;29;20055;-53
2021/10/30 12:35:40;;;;;;;15.93;14.25;;;24.90;32.70;;;;;;4785677;29;20055;-51
2021/10/30 12:38:22;;;;;;;17.13;14.10;;;24.90;32.70;;;;;;4778933;29;20579;-55